الصفحة الرئيسية
METAR-TAF:

METAR-TAF

مطار :

Zinder, النيجر

دائرة عرض: 13-47N, خط طول: 008-59E, ارتفاع: 452 متر

مراقبة الطقس الحالي

تاريخ ووقت الإصدار 4ساعات و 56 دقيقة قبل الساعة 18:00UTC
ريح 5 عقدة من الشرق/الشمال الشرقي, الاتجاه يتراوح بين الشمال الشرقي و الشرق/الشمال الشرقي
درجة الحرارة 27°درجة مئوية
الرطوبة 20%
ضغط 1013 hPa
الرؤية 10 كم أو أكثر
الغيوم لا تقل 1500 م ولا وجود لمزنة ركامية السحاب الأسود

METAR: DRZR 051800Z 06005KT 040V070 CAVOK 27/02 Q1013

زمن: 23:56 (22:56 UTC)

توقعات

تاريخ ووقت الإصدار 5ساعات و 56 دقيقة قبل الساعة 17:00UTC
التوقعات صالحة من05 الساعة 18 UTC إلى 06 الساعة 18 UTC
ريح 8 عقدة من الجنوب/الجنوب الشرقي
الرؤية: 8000 متر

TAF: DRZR 051700Z 0518/0618 15008KT 8000 NSC

أرصاد الطقس والتوقعات من أكثر من 4000 مطار (تقارير الطقس للمطار METAR والتنبؤ بالطقس بالمطارTAF).

المحطات المتاحة هي النقط الصفراء والحمراء على الخريطة.

حرك المؤشر فوق النقطة لمعرفة اسم المحطة.

ثم انقر لمعرفة أرصاد وتوقعات الطقس.

لتغيير الخارطة: اضغط على الأزرار الخضراء مع رمز الصليب الأسود للتكبير. على الزر الأخضر مع شرطة للتصغير، أو على الأسهم الخضراء للخرائط المجاورة.


METAR-TAF: